METAR Data
IDs: Format: Raw Decoded Include TAF

Data at: 0143 UTC 24 Sep 2018

KARM 240135Z AUTO 00000KT 10SM 24/20 A2988 RMK AO2 T02380195
KARM 240115Z AUTO 00000KT 10SM 24/19 A2988 RMK AO2 T02390192
KARM 240055Z AUTO 00000KT 10SM 24/19 A2988 RMK AO2 T02410191
KARM 240035Z AUTO 00000KT 10SM 24/19 A2987 RMK AO2 T02430186
KARM 240015Z AUTO 29003KT 10SM 25/18 A2987 RMK AO2 T02450182
KARM 232355Z AUTO 30003KT 10SM 25/18 A2987 RMK AO2 T02470181 10277 20247
KARM 232335Z AUTO 31003KT 10SM 25/18 A2987 RMK AO2 T02500178
KARM 232315Z AUTO 31005KT 10SM 25/18 A2986 RMK AO2 T02530176
KARM 232255Z AUTO 31006KT 10SM 26/18 A2987 RMK AO2 T02560179
KARM 232235Z AUTO 31005KT 10SM 26/18 A2986 RMK AO2 T02570179
KARM 232215Z AUTO 31008KT 10SM 26/18 A2986 RMK AO2 T02600184
KARM 232155Z AUTO 30006KT 10SM 26/18 A2986 RMK AO2 T02640184
KARM 232135Z AUTO 29006KT 10SM 27/18 A2986 RMK AO2 T02650182
KARM 232115Z AUTO 27005KT 10SM 26/18 A2987 RMK AO2 T02600180
KARM 232055Z AUTO 29006KT 10SM 27/18 A2987 RMK AO2 T02710182
KARM 232035Z AUTO 26009KT 10SM 27/18 A2988 RMK AO2 T02710181
KARM 232015Z AUTO 25007KT 10SM 28/18 A2988 RMK AO2 T02750181
KARM 231955Z AUTO 25005KT 10SM 27/18 A2989 RMK AO2 T02670183
KARM 231935Z AUTO 27004KT 10SM 26/18 A2990 RMK AO2 T02600179
KARM 231915Z AUTO 25003KT 10SM 26/18 A2991 RMK AO2 T02580178
KARM 231855Z AUTO 00000KT 10SM 26/18 A2992 RMK AO2 T02580180
KARM 231835Z AUTO 27003KT 10SM 25/18 A2993 RMK AO2 T02540179
KARM 231815Z AUTO 25004KT 10SM 26/18 A2994 RMK AO2 T02560180
KARM 231755Z AUTO 27005KT 10SM 25/18 A2994 RMK AO2 T02510178 10256 20201
KARM 231735Z AUTO 25004KT 10SM 25/18 A2995 RMK AO2 T02510176
KARM 231715Z AUTO 26005KT 10SM 25/18 A2996 RMK AO2 T02520177
KARM 231655Z AUTO 26003KT 10SM 25/18 A2996 RMK AO2 T02490179
KARM 231635Z AUTO 28003KT 10SM 25/18 A2996 RMK AO2 T02460176
KARM 231615Z AUTO 27004KT 10SM 25/18 A2996 RMK AO2 T02470179
KARM 231555Z AUTO 20003KT 10SM 24/17 A2996 RMK AO2 T02440174
KARM 231535Z AUTO 00000KT 10SM 24/18 A2996 RMK AO2 T02360177
KARM 231515Z AUTO 26004KT 10SM 24/18 A2996 RMK AO2 T02360178
KARM 231455Z AUTO 30003KT 10SM 23/18 A2996 RMK AO2 T02310178
KARM 231435Z AUTO 00000KT 10SM 23/18 A2996 RMK AO2 T02310179
KARM 231415Z AUTO 30004KT 10SM 23/18 A2995 RMK AO2 T02270182
KARM 231355Z AUTO 27003KT 10SM 22/18 A2995 RMK AO2 T02200182
KARM 231335Z AUTO 28003KT 10SM 21/19 A2994 RMK AO2 T02120186
KARM 231315Z AUTO 00000KT 10SM 21/19 A2993 RMK AO2 T02050187
KARM 231255Z AUTO 00000KT 10SM 20/19 A2993 RMK AO2 T02010185
KARM 231235Z AUTO 00000KT 10SM 20/19 A2992 RMK AO2 LTG DSNT SE T02010185
KARM 231215Z AUTO 00000KT 10SM 20/19 A2991 RMK AO2 T02010185
KARM 231155Z AUTO 27003KT 10SM 20/19 A2991 RMK AO2 70009 T02030186 10220 20203
KARM 231135Z AUTO 00000KT 10SM 21/19 A2991 RMK AO2 T02050186
KARM 231115Z AUTO 27003KT 10SM 21/19 A2991 RMK AO2 T02050187
KARM 231055Z AUTO 00000KT 10SM 21/19 A2990 RMK AO2 T02070187
KARM 231035Z AUTO 00000KT 10SM 21/19 A2990 RMK AO2 T02090189
KARM 231015Z AUTO 00000KT 10SM 21/19 A2990 RMK AO2 T02120189
KARM 230955Z AUTO 00000KT 10SM 21/19 A2990 RMK AO2 T02130188
KARM 230935Z AUTO 00000KT 10SM 21/19 A2990 RMK AO2 T02130190
KARM 230915Z AUTO 00000KT 10SM 22/19 A2990 RMK AO2 LTG DSNT SE T02150190
KARM 230850Z AUTO 31003KT 10SM 21/19 A2990 RMK AO2 T02140188
KARM 230835Z AUTO 00000KT 10SM 21/19 A2991 RMK AO2 T02130188
KARM 230815Z AUTO 30005KT 10SM 21/19 A2992 RMK AO2 T02130186
KARM 230755Z AUTO 31004KT 10SM 22/19 A2992 RMK AO2 LTG DSNT S T02150190
KARM 230735Z AUTO 30003KT 10SM VCTS 22/19 A2993 RMK AO2 LTG DSNT NE T02160190
KARM 230715Z AUTO 31004KT 10SM 22/19 A2993 RMK AO2 LTG DSNT SE T02170192
KARM 230655Z AUTO 29004KT 10SM 22/20 A2992 RMK AO2 T02170196
KARM 230635Z AUTO 00000KT 10SM 22/20 A2993 RMK AO2 LTG DSNT NE AND SE T02200196
KARM 230615Z AUTO 00000KT 10SM 22/20 A2993 RMK AO2 LTG DSNT NE T02170195
KARM 230555Z AUTO 32004KT 10SM 22/20 A2992 RMK AO2 60003 T02200195 10260 20220 403080220
KARM 230535Z AUTO 32005KT 10SM 22/19 A2993 RMK AO2 LTG DSNT E T02210194
KARM 230515Z AUTO 32005KT 10SM VCTS 22/20 A2993 RMK AO2 T02230197
KARM 230455Z AUTO 31007KT 10SM -RA 23/20 A2993 RMK AO2 LTG DSNT E T02280204
KARM 230435Z AUTO 32005KT 10SM 23/21 A2993 RMK AO2 LTG DSNT E T02300207
KARM 230415Z AUTO 33005KT 10SM 23/21 A2993 RMK AO2 T02300207
KARM 230355Z AUTO 30007KT 10SM 24/22 A2993 RMK AO2 LTG DSNT N P0001 T02350215
KARM 230335Z AUTO 32003KT 10SM 24/22 A2993 RMK AO2 LTG DSNT NE P0001 T02390220
KARM 230315Z AUTO 33007KT 10SM -RA 24/22 A2992 RMK AO2 LTG DSNT N P0001 T02400222
KARM 230255Z AUTO 30004KT 10SM 25/23 A2991 RMK AO2 LTG DSNT N 60002 T02450231
KARM 230235Z AUTO 28004KT 7SM 25/24 A2991 RMK AO2 T02510240
KARM 230215Z AUTO 22003KT 4SM BR 26/25 A2990 RMK AO2 T02560245
KARM 230155Z AUTO 00000KT 3SM BR 26/24 A2989 RMK AO2 T02550244
KARM 230135Z AUTO 00000KT 3SM BR 26/24 A2988 RMK AO2 T02550242
KARM 230115Z AUTO 00000KT 3SM BR 26/24 A2988 RMK AO2 LTG DSNT S T02560243
KARM 230055Z AUTO 00000KT 3SM BR 26/24 A2987 RMK AO2 P0002 T02570243
KARM 230035Z AUTO 00000KT 4SM -RA 26/25 A2988 RMK AO2 P0002 T02600245
KARM 230015Z AUTO 00000KT 2 1/2SM -RA 26/25 A2988 RMK AO2 P0002 T02600245
KARM 222355Z AUTO 12003KT 3SM -RA 26/25 A2988 RMK AO2 P0001 60006 T02600245 10302 20251
KARM 222335Z AUTO 11003KT 3SM -DZ 26/25 A2987 RMK AO2 LTG DSNT SE P0001 T02600245
KARM 222315Z AUTO 10003KT 4SM -VCTSRA 26/24 A2987 RMK AO2 T02600243
KARM 222255Z AUTO 10003KT 4SM -RA 26/24 A2987 RMK AO2 LTG DSNT SW P0003 T02580241
KARM 222235Z AUTO 00000KT 4SM -VCTSRA 26/24 A2988 RMK AO2 LTG DSNT SW AND W P0002 T02590241
KARM 222215Z AUTO 00000KT 5SM -RA 26/24 A2987 RMK AO2 LTG DSNT SW P0001 T02600240
KARM 222155Z AUTO 00000KT 7SM -RA 26/24 A2988 RMK AO2 LTG DSNT SW AND NW T02600240
KARM 222135Z AUTO 00000KT 7SM VCTS 26/24 A2987 RMK AO2 LTG DSNT E AND W T02580238
KARM 222115Z AUTO 00000KT 7SM 26/24 A2988 RMK AO2 LTG DSNT E T02570236
KARM 222055Z AUTO 00000KT 10SM 26/23 A2988 RMK AO2 LTG DSNT NE THRU SE 60002 T02560234
KARM 222035Z AUTO 13003KT 10SM 26/23 A2989 RMK AO2 LTG DSNT NE AND E T02560233
KARM 222015Z AUTO 00000KT 10SM VCTS 26/23 A2990 RMK AO2 LTG DSNT NE AND E T02560232
KARM 221955Z AUTO 14004KT 10SM VCTS 26/23 A2990 RMK AO2 LTG DSNT N AND NE T02550231
KARM 221930Z AUTO 12005KT 10SM 25/23 A2990 RMK AO2 LTG DSNT N THRU SE T02520226
KARM 221915Z AUTO 14005KT 10SM TS 26/23 A2990 RMK AO2 LTG DSNT N THRU SE T02550226
KARM 221855Z AUTO 18004KT 10SM -VCTSRA 26/22 A2990 RMK AO2 LTG DSNT N THRU SE P0002 T02550218
KARM 221835Z AUTO 20005KT 10SM -RA 26/21 A2991 RMK AO2 LTG DSNT N THRU SE P0002 T02550210
KARM 221815Z AUTO 19009KT 10SM -RA 27/21 A2991 RMK AO2 LTG DSNT ALQDS T02670213
KARM 221755Z AUTO 19010KT 10SM 30/24 A2990 RMK AO2 LTG DSNT N AND S T03030236 10308 20253
KARM 221735Z AUTO 19010KT 10SM 31/23 A2992 RMK AO2 LTG DSNT SW T03070234
KARM 221715Z AUTO 20009KT 10SM 31/23 A2993 RMK AO2 LTG DSNT SW T03050234
KARM 221655Z AUTO 20007KT 10SM 30/24 A2993 RMK AO2 LTG DSNT SW T03000235
KARM 221635Z AUTO 17007KT 10SM 30/23 A2993 RMK AO2 T02950233
KARM 221615Z AUTO 18007KT 10SM 30/23 A2993 RMK AO2 T02950233
KARM 221555Z AUTO 20007KT 10SM 29/23 A2994 RMK AO2 T02900231
KARM 221535Z AUTO 20007KT 10SM 29/23 A2994 RMK AO2 T02880227
KARM 221515Z AUTO 22008KT 10SM 29/23 A2993 RMK AO2 T02910228
KARM 221455Z AUTO 21009KT 10SM 29/23 A2994 RMK AO2 LTG DSNT E AND SE T02850226
KARM 221435Z AUTO 20008KT 10SM 28/23 A2994 RMK AO2 LTG DSNT SE T02800234
KARM 221415Z AUTO 22004KT 10SM 28/24 A2994 RMK AO2 T02750238
KARM 221355Z AUTO 20006KT 10SM 27/25 A2993 RMK AO2 LTG DSNT NE T02660250